createdAt,value
2019-01-16T00:00:32.869Z,93.66
2019-01-16T00:03:08.957Z,93.35
2019-01-16T00:05:45.229Z,93.39
2019-01-16T00:08:21.236Z,93.43
2019-01-16T00:10:51.579Z,93.68
2019-01-16T00:13:22.014Z,93.70
2019-01-16T00:16:10.209Z,93.90
2019-01-16T00:18:52.561Z,94.00
2019-01-16T00:21:25.450Z,94.34
2019-01-16T00:24:01.874Z,94.67
2019-01-16T00:26:48.487Z,94.76
2019-01-16T00:29:21.274Z,94.97
2019-01-16T00:31:51.606Z,95.17
2019-01-16T00:34:37.956Z,95.46
2019-01-16T00:37:16.888Z,95.65
2019-01-16T00:39:56.728Z,95.88
2019-01-16T00:42:41.753Z,95.85
2019-01-16T00:45:15.102Z,95.95
2019-01-16T00:48:03.585Z,96.21
2019-01-16T00:50:33.950Z,96.14
2019-01-16T00:53:10.024Z,96.33
2019-01-16T00:55:40.144Z,96.44
2019-01-16T00:58:13.485Z,96.68
2019-01-16T01:00:48.179Z,96.72
2019-01-16T01:03:24.512Z,96.96
2019-01-16T01:05:54.995Z,96.98
2019-01-16T01:08:37.847Z,97.16
2019-01-16T01:11:24.661Z,97.35
2019-01-16T01:13:54.779Z,97.23
2019-01-16T01:16:27.538Z,97.46
2019-01-16T01:18:57.957Z,97.50
2019-01-16T01:21:28.277Z,97.67
2019-01-16T01:24:00.772Z,97.80
2019-01-16T01:26:39.988Z,97.79
2019-01-16T01:29:10.061Z,97.79
2019-01-16T01:31:49.623Z,97.62
2019-01-16T01:34:21.516Z,97.63
2019-01-16T01:36:55.407Z,97.74
2019-01-16T01:39:40.542Z,97.72
2019-01-16T01:42:13.879Z,97.76
2019-01-16T01:44:53.125Z,98.29
2019-01-16T01:47:32.429Z,98.65
2019-01-16T01:50:19.022Z,98.96
2019-01-16T01:52:54.967Z,99.07
2019-01-16T01:55:30.891Z,99.42
2019-01-16T01:58:17.644Z,99.56
2019-01-16T02:00:50.698Z,99.66
2019-01-16T02:03:21.066Z,99.69
2019-01-16T02:05:51.138Z,99.79
2019-01-16T02:08:27.383Z,99.82
2019-01-16T02:11:06.343Z,99.67
2019-01-16T02:13:45.341Z,99.70
2019-01-16T02:16:15.374Z,99.48
2019-01-16T02:18:48.410Z,99.66
2019-01-16T02:21:21.462Z,99.53
2019-01-16T02:23:54.119Z,99.29
2019-01-16T02:26:24.503Z,99.18
2019-01-16T02:29:09.569Z,99.07
2019-01-16T02:31:45.173Z,99.02
2019-01-16T02:34:17.973Z,99.00
2019-01-16T02:37:00.715Z,98.92
2019-01-16T02:39:30.760Z,98.69
2019-01-16T02:42:16.433Z,98.38
2019-01-16T02:44:49.173Z,97.81
2019-01-16T02:47:28.235Z,97.87
2019-01-16T02:50:03.981Z,97.79
2019-01-16T02:52:40.089Z,97.28
2019-01-16T02:55:19.125Z,97.27
2019-01-16T02:58:05.679Z,97.10
2019-01-16T03:00:47.913Z,97.00
2019-01-16T03:03:24.102Z,96.95
2019-01-16T03:06:06.458Z,96.98
2019-01-16T03:08:42.652Z,96.78
2019-01-16T03:11:15.829Z,96.90
2019-01-16T03:13:52.031Z,96.74
2019-01-16T03:16:22.370Z,96.58
2019-01-16T03:19:04.498Z,96.82
2019-01-16T03:21:39.506Z,97.14
2019-01-16T03:24:09.548Z,97.07
2019-01-16T03:26:42.594Z,96.91
2019-01-16T03:29:29.426Z,96.58
2019-01-16T03:32:02.375Z,96.71
2019-01-16T03:34:41.469Z,97.05
2019-01-16T03:37:20.477Z,97.05
2019-01-16T03:39:53.254Z,97.09
2019-01-16T03:42:26.254Z,97.36
2019-01-16T03:45:02.393Z,97.50
2019-01-16T03:47:35.478Z,97.55
2019-01-16T03:50:22.133Z,97.50
2019-01-16T03:53:07.594Z,97.46
2019-01-16T03:55:40.508Z,97.33
2019-01-16T03:58:10.847Z,97.91
2019-01-16T04:00:46.568Z,97.71
2019-01-16T04:03:23.118Z,97.71
2019-01-16T04:05:56.532Z,97.25
2019-01-16T04:08:43.387Z,97.05
2019-01-16T04:11:13.469Z,97.24
2019-01-16T04:13:43.785Z,97.34
2019-01-16T04:16:13.835Z,97.10
2019-01-16T04:18:46.907Z,97.27
2019-01-16T04:21:22.474Z,96.88
2019-01-16T04:24:11.270Z,97.00
2019-01-16T04:26:41.604Z,96.05
2019-01-16T04:29:20.929Z,95.75
2019-01-16T04:32:05.281Z,94.71
2019-01-16T04:34:50.669Z,94.43
2019-01-16T04:37:26.742Z,93.84
2019-01-16T04:39:56.813Z,94.68
2019-01-16T04:42:43.064Z,94.42
2019-01-16T04:45:31.359Z,93.98
2019-01-16T04:48:17.922Z,94.13
2019-01-16T04:51:06.577Z,93.42
2019-01-16T04:53:36.917Z,93.55
2019-01-16T04:56:23.735Z,93.61
2019-01-16T04:59:10.481Z,94.23
2019-01-16T05:01:57.000Z,94.13
2019-01-16T05:04:44.050Z,93.07
2019-01-16T05:07:30.837Z,93.58
2019-01-16T05:10:03.774Z,93.22
2019-01-16T05:12:33.815Z,93.31
2019-01-16T05:15:10.270Z,93.64
2019-01-16T05:17:49.601Z,93.50
2019-01-16T05:20:32.001Z,93.18
2019-01-16T05:23:17.625Z,92.68
2019-01-16T05:25:47.749Z,93.08
2019-01-16T05:28:17.888Z,93.14
2019-01-16T05:30:48.217Z,93.11
2019-01-16T05:33:36.553Z,93.19
2019-01-16T05:36:15.656Z,93.66
2019-01-16T05:38:59.010Z,93.94
2019-01-16T05:41:29.331Z,94.10
2019-01-16T05:44:15.061Z,93.93
2019-01-16T05:46:45.365Z,93.67
2019-01-16T05:49:15.679Z,93.16
2019-01-16T05:51:53.200Z,93.38
2019-01-16T05:54:23.667Z,93.62
2019-01-16T05:57:03.377Z,93.29
2019-01-16T05:59:36.357Z,93.35
2019-01-16T06:02:06.493Z,92.67
2019-01-16T06:04:42.608Z,92.76
2019-01-16T06:07:12.948Z,92.07
2019-01-16T06:09:51.842Z,91.78
2019-01-16T06:12:28.393Z,91.98
2019-01-16T06:15:15.145Z,91.62
2019-01-16T06:17:45.232Z,91.51
2019-01-16T06:20:17.148Z,91.83
2019-01-16T06:22:59.604Z,91.51
2019-01-16T06:25:35.145Z,91.20
2019-01-16T06:28:07.972Z,90.96
2019-01-16T06:30:41.255Z,90.35
2019-01-16T06:33:17.186Z,90.77
2019-01-16T06:35:50.262Z,90.37
2019-01-16T06:38:29.783Z,90.47
2019-01-16T06:40:59.835Z,90.35
2019-01-16T06:43:30.144Z,89.96
2019-01-16T06:46:03.294Z,89.50
2019-01-16T06:48:49.609Z,89.02
2019-01-16T06:51:25.420Z,88.97
2019-01-16T06:54:01.526Z,88.75
2019-01-16T06:56:40.871Z,89.11
2019-01-16T06:59:13.688Z,88.22
2019-01-16T07:01:44.137Z,87.33
2019-01-16T07:04:20.442Z,87.84
2019-01-16T07:06:59.904Z,88.24
2019-01-16T07:09:30.283Z,88.03
2019-01-16T07:12:00.679Z,88.21
2019-01-16T07:14:46.168Z,88.29
2019-01-16T07:17:19.381Z,87.73
2019-01-16T07:19:52.203Z,87.51
2019-01-16T07:22:38.660Z,86.71
2019-01-16T07:25:15.235Z,86.49
2019-01-16T07:28:01.697Z,87.73
2019-01-16T07:30:34.716Z,88.36
2019-01-16T07:33:17.345Z,86.99
2019-01-16T07:35:58.998Z,88.10
2019-01-16T07:38:31.719Z,87.09
2019-01-16T07:41:03.412Z,87.54
2019-01-16T07:43:39.680Z,87.23
2019-01-16T07:46:12.389Z,86.72
2019-01-16T07:49:00.831Z,87.35
2019-01-16T07:51:33.906Z,87.35
2019-01-16T07:54:06.860Z,86.75
2019-01-16T07:56:48.899Z,86.51
2019-01-16T07:59:22.112Z,86.37
2019-01-16T08:01:52.542Z,86.92
2019-01-16T08:04:32.068Z,87.07
2019-01-16T08:07:09.271Z,86.41
2019-01-16T08:09:57.752Z,86.40
2019-01-16T08:12:44.510Z,84.79
2019-01-16T08:15:21.129Z,85.74
2019-01-16T08:17:51.549Z,85.76
2019-01-16T08:20:38.084Z,86.69
2019-01-16T08:23:11.717Z,84.65
2019-01-16T08:25:58.689Z,84.38
2019-01-16T08:28:41.025Z,84.30
2019-01-16T08:31:11.473Z,83.94
2019-01-16T08:33:47.878Z,84.17
2019-01-16T08:36:18.271Z,84.52
2019-01-16T08:39:00.494Z,83.96
2019-01-16T08:41:30.814Z,84.08
2019-01-16T08:44:16.553Z,85.03
2019-01-16T08:46:49.623Z,85.77
2019-01-16T08:49:25.495Z,85.84
2019-01-16T08:51:55.632Z,85.68
2019-01-16T08:54:31.530Z,84.02
2019-01-16T08:57:01.833Z,85.81
2019-01-16T08:59:38.359Z,84.81
2019-01-16T09:02:25.316Z,84.09
2019-01-16T09:04:55.456Z,84.74
2019-01-16T09:07:31.640Z,85.13
2019-01-16T09:10:16.750Z,84.59
2019-01-16T09:12:59.040Z,85.04
2019-01-16T09:15:35.006Z,85.03
2019-01-16T09:18:21.006Z,85.26
2019-01-16T09:21:09.666Z,85.09
2019-01-16T09:23:42.963Z,83.74
2019-01-16T09:26:16.082Z,83.48
2019-01-16T09:29:04.420Z,83.79
2019-01-16T09:31:51.161Z,83.51
2019-01-16T09:34:33.193Z,83.21
2019-01-16T09:37:06.024Z,84.18
2019-01-16T09:39:41.830Z,83.36
2019-01-16T09:42:27.423Z,83.18
2019-01-16T09:44:57.734Z,83.71
2019-01-16T09:47:28.864Z,83.70
2019-01-16T09:49:59.006Z,83.63
2019-01-16T09:52:29.461Z,83.69
2019-01-16T09:55:09.106Z,82.04
2019-01-16T09:57:39.453Z,82.34
2019-01-16T10:00:12.839Z,82.77
2019-01-16T10:02:59.113Z,82.37
2019-01-16T10:05:29.171Z,82.04
2019-01-16T10:08:02.432Z,82.88
2019-01-16T10:10:48.783Z,82.15
2019-01-16T10:13:19.159Z,80.79
2019-01-16T10:16:04.468Z,81.30
2019-01-16T10:18:41.251Z,82.65
2019-01-16T10:21:20.745Z,82.75
2019-01-16T10:24:05.921Z,82.04
2019-01-16T10:26:39.100Z,82.62
2019-01-16T10:29:26.559Z,82.59
2019-01-16T10:31:56.974Z,83.21
2019-01-16T10:34:42.541Z,82.99
2019-01-16T10:37:24.795Z,83.45
2019-01-16T10:40:03.721Z,83.33
2019-01-16T10:42:36.485Z,83.05
2019-01-16T10:45:10.866Z,83.31
2019-01-16T10:47:41.254Z,82.34
2019-01-16T10:50:23.306Z,83.34
2019-01-16T10:52:53.622Z,83.39
2019-01-16T10:55:23.727Z,82.38
2019-01-16T10:57:54.073Z,83.07
2019-01-16T11:00:40.857Z,82.04
2019-01-16T11:03:27.378Z,82.66
2019-01-16T11:06:10.091Z,82.39
2019-01-16T11:08:52.522Z,82.31
2019-01-16T11:11:37.918Z,81.93
2019-01-16T11:14:08.113Z,82.84
2019-01-16T11:16:56.669Z,82.46
2019-01-16T11:19:22.770Z,82.77
2019-01-16T11:22:09.447Z,82.02
2019-01-16T11:24:57.745Z,82.62
2019-01-16T11:27:33.779Z,81.31
2019-01-16T11:30:20.612Z,81.59
2019-01-16T11:32:53.738Z,82.26
2019-01-16T11:35:35.391Z,81.85
2019-01-16T11:38:11.004Z,80.92
2019-01-16T11:40:50.942Z,81.63
2019-01-16T11:43:24.091Z,81.57
2019-01-16T11:46:09.216Z,81.87
2019-01-16T11:48:51.088Z,81.66
2019-01-16T11:51:23.921Z,81.89
2019-01-16T11:53:54.310Z,82.63
2019-01-16T11:56:30.036Z,82.51
2019-01-16T11:59:06.335Z,82.55
2019-01-16T12:01:43.000Z,82.12
2019-01-16T12:04:28.164Z,81.28
2019-01-16T12:06:58.237Z,82.79
2019-01-16T12:09:34.639Z,81.06
2019-01-16T12:12:04.950Z,82.40
2019-01-16T12:14:37.977Z,82.41
2019-01-16T12:17:08.043Z,83.13
2019-01-16T12:19:41.177Z,83.10
2019-01-16T12:22:20.603Z,83.29
2019-01-16T12:24:57.127Z,83.26
2019-01-16T12:27:36.262Z,82.34
2019-01-16T12:30:11.798Z,82.15
2019-01-16T12:32:44.891Z,82.63
2019-01-16T12:35:31.393Z,81.08
2019-01-16T12:38:13.967Z,82.24
2019-01-16T12:41:00.466Z,80.75
2019-01-16T12:43:30.863Z,80.73
2019-01-16T12:46:01.204Z,80.89
2019-01-16T12:48:47.711Z,81.95
2019-01-16T12:51:35.817Z,82.37
2019-01-16T12:54:08.394Z,82.64
2019-01-16T12:56:41.372Z,82.95
2019-01-16T12:59:14.799Z,83.03
2019-01-16T13:01:45.652Z,81.99
2019-01-16T13:04:16.157Z,82.84
2019-01-16T13:07:02.725Z,81.81
2019-01-16T13:09:35.489Z,81.61
2019-01-16T13:12:06.065Z,82.76
2019-01-16T13:14:42.259Z,82.59
2019-01-16T13:17:21.690Z,82.77
2019-01-16T13:19:54.770Z,82.83
2019-01-16T13:22:42.644Z,82.41
2019-01-16T13:25:30.079Z,83.48
2019-01-16T13:28:03.434Z,82.49
2019-01-16T13:30:49.142Z,82.49
2019-01-16T13:33:21.974Z,83.16
2019-01-16T13:36:08.033Z,82.41
2019-01-16T13:38:44.150Z,83.00
2019-01-16T13:41:16.637Z,82.90
2019-01-16T13:43:59.030Z,82.50
2019-01-16T13:46:29.441Z,81.83
2019-01-16T13:49:05.232Z,82.67
2019-01-16T13:51:35.322Z,83.35
2019-01-16T13:54:08.235Z,83.53
2019-01-16T13:56:54.984Z,83.81
2019-01-16T13:59:25.421Z,83.80
2019-01-16T14:01:55.604Z,84.08
2019-01-16T14:04:42.167Z,84.72
2019-01-16T14:07:12.501Z,84.03
2019-01-16T14:09:42.823Z,84.67
2019-01-16T14:12:22.339Z,84.09
2019-01-16T14:14:52.553Z,84.09
2019-01-16T14:17:31.781Z,84.80
2019-01-16T14:20:05.926Z,84.13
2019-01-16T14:22:51.348Z,84.32
2019-01-16T14:25:38.225Z,84.49
2019-01-16T14:28:23.982Z,84.59
2019-01-16T14:31:02.887Z,84.57
2019-01-16T14:33:33.314Z,84.26
2019-01-16T14:36:09.917Z,84.61
2019-01-16T14:38:49.156Z,83.94
2019-01-16T14:41:28.295Z,84.45
2019-01-16T14:44:07.173Z,85.34
2019-01-16T14:46:37.393Z,85.06
2019-01-16T14:49:22.492Z,85.59
2019-01-16T14:52:08.267Z,85.71
2019-01-16T14:54:54.932Z,84.82
2019-01-16T14:57:27.821Z,85.84
2019-01-16T15:00:01.780Z,85.33
2019-01-16T15:02:34.826Z,85.47
2019-01-16T15:05:07.927Z,85.62
2019-01-16T15:07:44.142Z,84.99
2019-01-16T15:10:14.536Z,85.28
2019-01-16T15:13:01.150Z,84.54
2019-01-16T15:15:31.578Z,85.35
2019-01-16T15:18:19.621Z,85.26
2019-01-16T15:20:50.112Z,85.02
2019-01-16T15:23:35.210Z,85.32
2019-01-16T15:26:08.438Z,85.06
2019-01-16T15:28:44.449Z,85.35
2019-01-16T15:31:20.823Z,85.32
2019-01-16T15:33:53.791Z,85.10
2019-01-16T15:36:42.410Z,85.37
2019-01-16T15:39:16.043Z,84.86
2019-01-16T15:41:51.915Z,85.43
2019-01-16T15:44:22.241Z,85.05
2019-01-16T15:46:55.784Z,85.75
2019-01-16T15:49:26.108Z,85.18
2019-01-16T15:51:58.804Z,85.39
2019-01-16T15:54:35.056Z,85.80
2019-01-16T15:57:05.513Z,85.36
2019-01-16T15:59:44.609Z,85.84
2019-01-16T16:02:18.130Z,85.56
2019-01-16T16:05:04.167Z,85.81
2019-01-16T16:07:45.890Z,86.15
2019-01-16T16:10:18.713Z,86.12
2019-01-16T16:12:51.931Z,85.92
2019-01-16T16:15:40.382Z,85.51
2019-01-16T16:18:16.357Z,85.79
2019-01-16T16:21:01.902Z,85.82
2019-01-16T16:23:34.936Z,85.29
2019-01-16T16:26:05.359Z,86.07
2019-01-16T16:28:41.467Z,85.10
2019-01-16T16:31:11.853Z,85.52
2019-01-16T16:33:48.532Z,85.61
2019-01-16T16:36:35.217Z,85.72
2019-01-16T16:39:22.631Z,85.95
2019-01-16T16:41:58.443Z,85.24
2019-01-16T16:44:28.856Z,85.04
2019-01-16T16:47:05.391Z,85.90
2019-01-16T16:49:38.946Z,85.25
2019-01-16T16:52:25.876Z,84.93
2019-01-16T16:54:59.625Z,85.13
2019-01-16T16:57:29.748Z,85.55
2019-01-16T17:00:15.104Z,85.54
2019-01-16T17:03:02.224Z,85.72
2019-01-16T17:05:38.574Z,84.94
2019-01-16T17:08:24.009Z,85.15
2019-01-16T17:10:56.808Z,85.13
2019-01-16T17:13:29.683Z,84.72
2019-01-16T17:16:02.530Z,84.67
2019-01-16T17:18:32.611Z,84.67
2019-01-16T17:21:18.073Z,86.13
2019-01-16T17:23:48.391Z,85.68
2019-01-16T17:26:21.624Z,85.19
2019-01-16T17:28:57.472Z,85.73
2019-01-16T17:31:40.026Z,85.25
2019-01-16T17:34:27.129Z,85.32
2019-01-16T17:37:13.627Z,85.89
2019-01-16T17:39:50.739Z,85.81
2019-01-16T17:42:21.161Z,86.38
2019-01-16T17:45:00.767Z,85.92
2019-01-16T17:47:45.557Z,85.74
2019-01-16T17:50:16.915Z,85.87
2019-01-16T17:52:56.029Z,85.77
2019-01-16T17:55:41.519Z,86.14
2019-01-16T17:58:26.915Z,85.46
2019-01-16T18:00:59.673Z,85.74
2019-01-16T18:03:30.103Z,86.22
2019-01-16T18:06:16.374Z,86.02
2019-01-16T18:08:46.769Z,85.68
2019-01-16T18:11:16.930Z,86.19
2019-01-16T18:14:03.611Z,86.39
2019-01-16T18:16:49.035Z,86.02
2019-01-16T18:19:20.694Z,86.29
2019-01-16T18:21:54.036Z,86.33
2019-01-16T18:24:24.439Z,86.72
2019-01-16T18:27:06.985Z,85.93
2019-01-16T18:29:40.347Z,86.46
2019-01-16T18:32:26.598Z,86.45
2019-01-16T18:34:59.683Z,86.67
2019-01-16T18:37:32.831Z,86.42
2019-01-16T18:40:03.171Z,86.86
2019-01-16T18:42:33.491Z,86.95
2019-01-16T18:45:03.832Z,86.85
2019-01-16T18:47:40.471Z,86.89
2019-01-16T18:50:19.771Z,86.97
2019-01-16T18:52:58.700Z,87.44
2019-01-16T18:55:31.338Z,86.88
2019-01-16T18:58:10.380Z,86.82
2019-01-16T19:00:57.200Z,86.80
2019-01-16T19:03:39.671Z,87.32
2019-01-16T19:06:10.085Z,85.75
2019-01-16T19:08:46.206Z,86.24
2019-01-16T19:11:19.443Z,85.77
2019-01-16T19:14:05.997Z,85.55
2019-01-16T19:16:39.067Z,85.03
2019-01-16T19:19:09.522Z,83.66
2019-01-16T19:21:39.846Z,83.86
2019-01-16T19:24:18.949Z,84.25
2019-01-16T19:26:49.291Z,83.68
2019-01-16T19:29:19.463Z,84.38
2019-01-16T19:31:49.571Z,83.50
2019-01-16T19:34:22.399Z,83.29
2019-01-16T19:37:07.718Z,83.70
2019-01-16T19:39:47.001Z,83.09
2019-01-16T19:42:17.150Z,83.18
2019-01-16T19:44:56.168Z,82.94
2019-01-16T19:47:38.663Z,82.94
2019-01-16T19:50:31.261Z,83.05
2019-01-16T19:53:04.849Z,82.81
2019-01-16T19:55:33.833Z,82.83
2019-01-16T19:58:20.520Z,81.61
2019-01-16T20:00:56.531Z,81.19
2019-01-16T20:03:35.676Z,81.05
2019-01-16T20:06:21.406Z,82.43
2019-01-16T20:09:08.361Z,82.33
2019-01-16T20:11:47.903Z,83.08
2019-01-16T20:14:18.246Z,82.46
2019-01-16T20:16:48.664Z,82.68
2019-01-16T20:19:24.599Z,82.78
2019-01-16T20:21:55.052Z,83.67
2019-01-16T20:24:25.409Z,82.88
2019-01-16T20:27:11.876Z,82.06
2019-01-16T20:29:45.132Z,82.78
2019-01-16T20:32:18.672Z,83.35
2019-01-16T20:34:55.264Z,83.02
2019-01-16T20:37:41.099Z,83.46
2019-01-16T20:40:19.186Z,83.62
2019-01-16T20:43:07.597Z,83.13
2019-01-16T20:45:37.831Z,84.04
2019-01-16T20:48:07.970Z,84.00
2019-01-16T20:50:40.939Z,83.94
2019-01-16T20:53:27.858Z,83.87
2019-01-16T20:56:03.965Z,84.06
2019-01-16T20:58:43.668Z,84.16
2019-01-16T21:01:16.782Z,84.10
2019-01-16T21:03:49.985Z,84.30
2019-01-16T21:06:26.329Z,84.73
2019-01-16T21:09:12.599Z,84.32
2019-01-16T21:11:49.047Z,84.34
2019-01-16T21:14:25.120Z,84.19
2019-01-16T21:16:58.476Z,84.85
2019-01-16T21:19:35.084Z,84.00
2019-01-16T21:22:08.407Z,85.29
2019-01-16T21:24:38.773Z,84.65
2019-01-16T21:27:11.823Z,85.29
2019-01-16T21:29:58.239Z,84.27
2019-01-16T21:32:31.643Z,84.78
2019-01-16T21:35:04.880Z,85.16
2019-01-16T21:37:38.139Z,84.84
2019-01-16T21:40:17.167Z,84.99
2019-01-16T21:42:49.931Z,84.91
2019-01-16T21:45:28.814Z,85.01
2019-01-16T21:48:02.304Z,84.35
2019-01-16T21:50:37.856Z,84.12
2019-01-16T21:53:10.667Z,84.79
2019-01-16T21:55:41.106Z,85.27
2019-01-16T21:58:27.832Z,85.01
2019-01-16T22:00:58.214Z,85.59
2019-01-16T22:03:40.142Z,85.56
2019-01-16T22:06:26.657Z,85.32
2019-01-16T22:08:56.789Z,85.21
2019-01-16T22:11:30.090Z,85.25
2019-01-16T22:14:15.359Z,85.12
2019-01-16T22:17:03.492Z,84.49
2019-01-16T22:19:33.885Z,85.02
2019-01-16T22:22:04.251Z,85.09
2019-01-16T22:24:52.768Z,85.22
2019-01-16T22:27:39.509Z,84.88
2019-01-16T22:30:21.587Z,85.06
2019-01-16T22:32:51.700Z,85.71
2019-01-16T22:35:36.488Z,85.95
2019-01-16T22:38:23.289Z,85.04
2019-01-16T22:41:12.598Z,85.65
2019-01-16T22:44:01.298Z,85.17
2019-01-16T22:46:47.966Z,85.63
2019-01-16T22:49:34.222Z,85.68
2019-01-16T22:52:16.658Z,85.64
2019-01-16T22:54:52.856Z,85.53
2019-01-16T22:57:29.239Z,85.67
2019-01-16T23:00:02.072Z,85.35
2019-01-16T23:02:44.697Z,85.34
2019-01-16T23:05:14.788Z,86.16
2019-01-16T23:07:57.394Z,85.56
2019-01-16T23:10:43.681Z,85.66
2019-01-16T23:13:23.244Z,85.68
2019-01-16T23:15:53.547Z,84.52
2019-01-16T23:18:35.591Z,85.33
2019-01-16T23:21:14.809Z,84.53
2019-01-16T23:23:50.994Z,84.93
2019-01-16T23:26:33.452Z,85.41
2019-01-16T23:29:10.080Z,85.57
2019-01-16T23:31:52.589Z,86.36
2019-01-16T23:34:24.220Z,86.73
2019-01-16T23:37:09.815Z,87.70
2019-01-16T23:39:54.795Z,87.80
2019-01-16T23:42:39.954Z,89.31
2019-01-16T23:45:27.657Z,88.88
2019-01-16T23:48:13.898Z,89.58
2019-01-16T23:50:47.234Z,90.01
2019-01-16T23:53:29.861Z,90.47
2019-01-16T23:56:02.790Z,91.11
2019-01-16T23:58:50.210Z,91.32
